sensor_id;sensor_type;location;lat;lon;timestamp;pressure;altitude;pressure_sealevel;temperature;humidity
53932;BME280;39844;52.496;13.482;2022-07-23T00:01:27;101474.03;;;19.49;68.33
53932;BME280;39844;52.496;13.482;2022-07-23T00:03:54;101462.56;;;19.47;67.07
53932;BME280;39844;52.496;13.482;2022-07-23T00:06:20;101458.97;;;19.48;68.00
53932;BME280;39844;52.496;13.482;2022-07-23T00:08:46;101454.53;;;19.48;66.88
53932;BME280;39844;52.496;13.482;2022-07-23T00:11:11;101452.75;;;19.47;66.83
53932;BME280;39844;52.496;13.482;2022-07-23T00:13:37;101447.56;;;19.44;65.81
53932;BME280;39844;52.496;13.482;2022-07-23T00:16:02;101447.56;;;19.44;65.97
53932;BME280;39844;52.496;13.482;2022-07-23T00:18:28;101446.69;;;19.44;65.88
53932;BME280;39844;52.496;13.482;2022-07-23T00:20:53;101442.25;;;19.43;66.65
53932;BME280;39844;52.496;13.482;2022-07-23T00:23:18;101444.03;;;19.42;66.75
53932;BME280;39844;52.496;13.482;2022-07-23T00:25:44;101443.28;;;19.39;66.85
53932;BME280;39844;52.496;13.482;2022-07-23T00:28:10;101440.66;;;19.36;67.35
53932;BME280;39844;52.496;13.482;2022-07-23T00:30:36;101437.19;;;19.32;67.75
53932;BME280;39844;52.496;13.482;2022-07-23T00:33:05;101439.13;;;19.27;67.38
53932;BME280;39844;52.496;13.482;2022-07-23T00:35:32;101435.59;;;19.27;67.92
53932;BME280;39844;52.496;13.482;2022-07-23T00:37:59;101439.22;;;19.24;67.55
53932;BME280;39844;52.496;13.482;2022-07-23T00:40:27;101443.66;;;19.24;66.43
53932;BME280;39844;52.496;13.482;2022-07-23T00:42:53;101429.44;;;19.25;66.01
53932;BME280;39844;52.496;13.482;2022-07-23T00:45:19;101430.31;;;19.25;64.97
53932;BME280;39844;52.496;13.482;2022-07-23T00:47:44;101428.53;;;19.26;65.21
53932;BME280;39844;52.496;13.482;2022-07-23T00:50:10;101441.91;;;19.23;65.02
53932;BME280;39844;52.496;13.482;2022-07-23T00:52:36;101440.19;;;19.22;65.10
53932;BME280;39844;52.496;13.482;2022-07-23T00:55:04;101443.69;;;19.22;64.89
53932;BME280;39844;52.496;13.482;2022-07-23T00:57:29;101442.84;;;19.22;65.51
53932;BME280;39844;52.496;13.482;2022-07-23T00:59:55;101433.97;;;19.21;65.63
53932;BME280;39844;52.496;13.482;2022-07-23T01:02:21;101424.22;;;19.22;65.86
53932;BME280;39844;52.496;13.482;2022-07-23T01:04:46;101428.66;;;19.21;66.11
53932;BME280;39844;52.496;13.482;2022-07-23T01:07:12;101444.72;;;19.18;66.20
53932;BME280;39844;52.496;13.482;2022-07-23T01:09:37;101442.94;;;19.19;66.29
53932;BME280;39844;52.496;13.482;2022-07-23T01:12:03;101442.00;;;19.20;66.54
53932;BME280;39844;52.496;13.482;2022-07-23T01:14:29;101447.28;;;19.21;66.30
53932;BME280;39844;52.496;13.482;2022-07-23T01:16:54;101451.75;;;19.21;66.09
53932;BME280;39844;52.496;13.482;2022-07-23T01:19:20;101443.75;;;19.21;65.69
53932;BME280;39844;52.496;13.482;2022-07-23T01:21:50;101442.00;;;19.20;65.56
53932;BME280;39844;52.496;13.482;2022-07-23T01:24:16;101427.91;;;19.16;65.23
53932;BME280;39844;52.496;13.482;2022-07-23T01:26:44;101432.44;;;19.13;65.30
53932;BME280;39844;52.496;13.482;2022-07-23T01:29:10;101432.50;;;19.10;65.44
53932;BME280;39844;52.496;13.482;2022-07-23T01:31:36;101424.59;;;19.08;66.33
53932;BME280;39844;52.496;13.482;2022-07-23T01:34:02;101410.47;;;19.05;66.72
53932;BME280;39844;52.496;13.482;2022-07-23T01:36:28;101409.84;;;18.97;67.05
53932;BME280;39844;52.496;13.482;2022-07-23T01:38:53;101417.03;;;18.91;67.78
53932;BME280;39844;52.496;13.482;2022-07-23T01:41:18;101416.28;;;18.86;67.71
53932;BME280;39844;52.496;13.482;2022-07-23T01:43:44;101412.03;;;18.81;67.48
53932;BME280;39844;52.496;13.482;2022-07-23T01:46:10;101419.34;;;18.73;67.32
53932;BME280;39844;52.496;13.482;2022-07-23T01:48:35;101418.53;;;18.69;67.26
53932;BME280;39844;52.496;13.482;2022-07-23T01:51:01;101419.41;;;18.70;68.13
53932;BME280;39844;52.496;13.482;2022-07-23T01:53:26;101416.81;;;18.68;68.35
53932;BME280;39844;52.496;13.482;2022-07-23T01:55:51;101419.56;;;18.64;68.79
53932;BME280;39844;52.496;13.482;2022-07-23T01:58:18;101414.38;;;18.59;69.60
53932;BME280;39844;52.496;13.482;2022-07-23T02:00:43;101398.50;;;18.56;69.81
53932;BME280;39844;52.496;13.482;2022-07-23T02:03:08;101398.59;;;18.53;70.26
53932;BME280;39844;52.496;13.482;2022-07-23T02:05:34;101401.31;;;18.50;70.53
53932;BME280;39844;52.496;13.482;2022-07-23T02:07:59;101411.97;;;18.50;70.80
53932;BME280;39844;52.496;13.482;2022-07-23T02:10:26;101416.41;;;18.50;70.21
53932;BME280;39844;52.496;13.482;2022-07-23T02:12:52;101411.97;;;18.50;69.77
53932;BME280;39844;52.496;13.482;2022-07-23T02:15:17;101413.69;;;18.51;70.21
53932;BME280;39844;52.496;13.482;2022-07-23T02:17:43;101410.13;;;18.52;69.71
53932;BME280;39844;52.496;13.482;2022-07-23T02:20:09;101416.34;;;18.53;69.93
53932;BME280;39844;52.496;13.482;2022-07-23T02:22:35;101411.97;;;18.50;69.35
53932;BME280;39844;52.496;13.482;2022-07-23T02:25:02;101404.88;;;18.49;69.48
53932;BME280;39844;52.496;13.482;2022-07-23T02:27:28;101401.28;;;18.52;70.06
53932;BME280;39844;52.496;13.482;2022-07-23T02:29:53;101401.25;;;18.53;70.60
53932;BME280;39844;52.496;13.482;2022-07-23T02:32:18;101405.69;;;18.53;69.77
53932;BME280;39844;52.496;13.482;2022-07-23T02:34:46;101403.16;;;18.48;69.35
53932;BME280;39844;52.496;13.482;2022-07-23T02:37:11;101404.94;;;18.48;69.02
53932;BME280;39844;52.496;13.482;2022-07-23T02:39:36;101404.06;;;18.46;68.83
53932;BME280;39844;52.496;13.482;2022-07-23T02:42:02;101412.06;;;18.44;68.94
53932;BME280;39844;52.496;13.482;2022-07-23T02:44:27;101410.41;;;18.40;68.79
53932;BME280;39844;52.496;13.482;2022-07-23T02:46:52;101412.25;;;18.38;68.95
53932;BME280;39844;52.496;13.482;2022-07-23T02:49:18;101413.19;;;18.36;68.82
53932;BME280;39844;52.496;13.482;2022-07-23T02:51:43;101415.88;;;18.34;68.54
53932;BME280;39844;52.496;13.482;2022-07-23T02:54:08;101421.25;;;18.31;69.17
53932;BME280;39844;52.496;13.482;2022-07-23T02:56:34;101417.78;;;18.29;69.21
53932;BME280;39844;52.496;13.482;2022-07-23T02:58:59;101416.13;;;18.25;69.15
53932;BME280;39844;52.496;13.482;2022-07-23T03:01:24;101413.53;;;18.22;69.62
53932;BME280;39844;52.496;13.482;2022-07-23T03:03:49;101413.59;;;18.19;69.51
53932;BME280;39844;52.496;13.482;2022-07-23T03:06:15;101407.44;;;18.17;69.62
53932;BME280;39844;52.496;13.482;2022-07-23T03:08:40;101421.63;;;18.16;69.55
53932;BME280;39844;52.496;13.482;2022-07-23T03:11:05;101409.28;;;18.13;69.46
53932;BME280;39844;52.496;13.482;2022-07-23T03:13:38;101412.91;;;18.11;69.64
53932;BME280;39844;52.496;13.482;2022-07-23T03:16:04;101401.44;;;18.09;69.82
53932;BME280;39844;52.496;13.482;2022-07-23T03:18:30;101412.97;;;18.08;70.12
53932;BME280;39844;52.496;13.482;2022-07-23T03:20:55;101418.38;;;18.05;70.23
53932;BME280;39844;52.496;13.482;2022-07-23T03:23:21;101409.59;;;18.01;70.44
53932;BME280;39844;52.496;13.482;2022-07-23T03:25:46;101408.75;;;17.99;70.23
53932;BME280;39844;52.496;13.482;2022-07-23T03:28:14;101406.13;;;17.98;70.34
53932;BME280;39844;52.496;13.482;2022-07-23T03:30:41;101406.13;;;17.98;70.80
53932;BME280;39844;52.496;13.482;2022-07-23T03:33:06;101415.91;;;17.97;70.83
53932;BME280;39844;52.496;13.482;2022-07-23T03:35:31;101422.16;;;17.95;71.04
53932;BME280;39844;52.496;13.482;2022-07-23T03:37:57;101427.50;;;17.93;71.15
53932;BME280;39844;52.496;13.482;2022-07-23T03:40:22;101436.41;;;17.91;71.37
53932;BME280;39844;52.496;13.482;2022-07-23T03:42:47;101439.94;;;17.91;71.57
53932;BME280;39844;52.496;13.482;2022-07-23T03:45:13;101443.47;;;17.92;71.76
53932;BME280;39844;52.496;13.482;2022-07-23T03:47:38;101440.00;;;17.88;70.47
53932;BME280;39844;52.496;13.482;2022-07-23T03:50:04;101448.13;;;17.82;70.68
53932;BME280;39844;52.496;13.482;2022-07-23T03:52:30;101447.31;;;17.79;71.20
53932;BME280;39844;52.496;13.482;2022-07-23T03:54:55;101445.53;;;17.78;71.33
53932;BME280;39844;52.496;13.482;2022-07-23T03:57:20;101450.06;;;17.74;70.98
53932;BME280;39844;52.496;13.482;2022-07-23T03:59:46;101450.13;;;17.71;71.06
53932;BME280;39844;52.496;13.482;2022-07-23T04:02:11;101459.91;;;17.69;70.77
53932;BME280;39844;52.496;13.482;2022-07-23T04:04:36;101466.13;;;17.68;70.39
53932;BME280;39844;52.496;13.482;2022-07-23T04:07:02;101453.00;;;17.60;70.17
53932;BME280;39844;52.496;13.482;2022-07-23T04:09:27;101450.41;;;17.59;70.47
53932;BME280;39844;52.496;13.482;2022-07-23T04:11:52;101454.78;;;17.60;70.72
53932;BME280;39844;52.496;13.482;2022-07-23T04:14:18;101435.31;;;17.59;70.39
53932;BME280;39844;52.496;13.482;2022-07-23T04:16:43;101433.53;;;17.61;70.68
53932;BME280;39844;52.496;13.482;2022-07-23T04:19:08;101437.03;;;17.62;70.90
53932;BME280;39844;52.496;13.482;2022-07-23T04:21:34;101440.56;;;17.62;71.96
53932;BME280;39844;52.496;13.482;2022-07-23T04:23:59;101446.81;;;17.60;70.28
53932;BME280;39844;52.496;13.482;2022-07-23T04:26:24;101440.78;;;17.53;69.64
53932;BME280;39844;52.496;13.482;2022-07-23T04:28:50;101435.47;;;17.53;70.95
53932;BME280;39844;52.496;13.482;2022-07-23T04:31:15;101426.69;;;17.48;69.46
53932;BME280;39844;52.496;13.482;2022-07-23T04:33:40;101444.44;;;17.46;70.42
53932;BME280;39844;52.496;13.482;2022-07-23T04:36:06;101441.78;;;17.46;70.01
53932;BME280;39844;52.496;13.482;2022-07-23T04:38:31;101431.22;;;17.42;69.25
53932;BME280;39844;52.496;13.482;2022-07-23T04:40:58;101423.38;;;17.37;68.98
53932;BME280;39844;52.496;13.482;2022-07-23T04:43:23;101466.75;;;17.36;68.94
53932;BME280;39844;52.496;13.482;2022-07-23T04:45:48;101465.84;;;17.37;70.15
53932;BME280;39844;52.496;13.482;2022-07-23T04:48:14;101483.59;;;17.35;72.12
53932;BME280;39844;52.496;13.482;2022-07-23T04:50:39;101500.50;;;17.30;74.58
53932;BME280;39844;52.496;13.482;2022-07-23T04:53:04;101497.09;;;17.23;78.08
53932;BME280;39844;52.496;13.482;2022-07-23T04:55:30;101498.09;;;17.16;79.60
53932;BME280;39844;52.496;13.482;2022-07-23T04:57:55;101479.81;;;17.01;79.09
53932;BME280;39844;52.496;13.482;2022-07-23T05:00:20;101488.06;;;16.84;78.66
53932;BME280;39844;52.496;13.482;2022-07-23T05:02:46;101495.38;;;16.72;80.37
53932;BME280;39844;52.496;13.482;2022-07-23T05:05:11;101486.63;;;16.67;81.86
53932;BME280;39844;52.496;13.482;2022-07-23T05:07:36;101458.38;;;16.63;82.72
53932;BME280;39844;52.496;13.482;2022-07-23T05:10:02;101441.69;;;16.58;83.19
53932;BME280;39844;52.496;13.482;2022-07-23T05:12:27;101465.63;;;16.52;83.26
53932;BME280;39844;52.496;13.482;2022-07-23T05:14:53;101484.22;;;16.49;83.75
53932;BME280;39844;52.496;13.482;2022-07-23T05:17:18;101472.78;;;16.45;84.22
53932;BME280;39844;52.496;13.482;2022-07-23T05:19:43;101474.63;;;16.41;84.39
53932;BME280;39844;52.496;13.482;2022-07-23T05:22:09;101469.44;;;16.34;83.30
53932;BME280;39844;52.496;13.482;2022-07-23T05:24:34;101469.44;;;16.34;83.79
53932;BME280;39844;52.496;13.482;2022-07-23T05:26:59;101475.66;;;16.31;84.55
53932;BME280;39844;52.496;13.482;2022-07-23T05:29:25;101463.28;;;16.33;85.06
53932;BME280;39844;52.496;13.482;2022-07-23T05:31:50;101465.97;;;16.30;85.36
53932;BME280;39844;52.496;13.482;2022-07-23T05:34:15;101473.03;;;16.31;86.71
53932;BME280;39844;52.496;13.482;2022-07-23T05:36:40;101465.97;;;16.30;86.38
53932;BME280;39844;52.496;13.482;2022-07-23T05:39:06;101474.88;;;16.26;85.96
53932;BME280;39844;52.496;13.482;2022-07-23T05:41:31;101467.91;;;16.19;85.15
53932;BME280;39844;52.496;13.482;2022-07-23T05:43:56;101471.41;;;16.20;85.79
53932;BME280;39844;52.496;13.482;2022-07-23T05:46:22;101477.53;;;16.25;87.57
53932;BME280;39844;52.496;13.482;2022-07-23T05:48:47;101462.53;;;16.22;86.22
53932;BME280;39844;52.496;13.482;2022-07-23T05:51:19;101459.94;;;16.21;86.39
53932;BME280;39844;52.496;13.482;2022-07-23T05:53:45;101476.72;;;16.20;86.11
53932;BME280;39844;52.496;13.482;2022-07-23T05:56:10;101499.63;;;16.22;86.41
53932;BME280;39844;52.496;13.482;2022-07-23T05:58:35;101518.16;;;16.25;87.75
53932;BME280;39844;52.496;13.482;2022-07-23T06:01:01;101518.94;;;16.30;89.07
53932;BME280;39844;52.496;13.482;2022-07-23T06:03:26;101504.81;;;16.31;88.78
53932;BME280;39844;52.496;13.482;2022-07-23T06:05:51;101510.97;;;16.33;89.16
53932;BME280;39844;52.496;13.482;2022-07-23T06:08:17;101495.94;;;16.32;89.20
53932;BME280;39844;52.496;13.482;2022-07-23T06:10:42;101492.50;;;16.27;87.47
53932;BME280;39844;52.496;13.482;2022-07-23T06:13:07;101474.91;;;16.23;87.25
53932;BME280;39844;52.496;13.482;2022-07-23T06:15:32;101471.28;;;16.27;89.59
53932;BME280;39844;52.496;13.482;2022-07-23T06:17:58;101459.00;;;16.23;88.23
53932;BME280;39844;52.496;13.482;2022-07-23T06:20:23;101474.06;;;16.21;88.86
53932;BME280;39844;52.496;13.482;2022-07-23T06:22:48;101474.06;;;16.21;90.96
53932;BME280;39844;52.496;13.482;2022-07-23T06:25:14;101474.88;;;16.26;92.12
53932;BME280;39844;52.496;13.482;2022-07-23T06:27:41;101479.25;;;16.27;91.45
53932;BME280;39844;52.496;13.482;2022-07-23T06:30:07;101480.25;;;16.20;89.70
53932;BME280;39844;52.496;13.482;2022-07-23T06:32:33;101490.84;;;16.20;89.73
53932;BME280;39844;52.496;13.482;2022-07-23T06:34:58;101493.50;;;16.22;90.75
53932;BME280;39844;52.496;13.482;2022-07-23T06:37:24;101473.09;;;16.25;91.92
53932;BME280;39844;52.496;13.482;2022-07-23T06:39:49;101448.38;;;16.26;91.89
53932;BME280;39844;52.496;13.482;2022-07-23T06:42:14;101439.50;;;16.27;92.98
53932;BME280;39844;52.496;13.482;2022-07-23T06:44:40;101451.88;;;16.28;93.32
53932;BME280;39844;52.496;13.482;2022-07-23T06:47:05;101456.28;;;16.29;92.93
53932;BME280;39844;52.496;13.482;2022-07-23T06:49:31;101464.16;;;16.34;93.60
53932;BME280;39844;52.496;13.482;2022-07-23T06:51:56;101459.69;;;16.36;92.96
53932;BME280;39844;52.496;13.482;2022-07-23T06:54:21;101455.25;;;16.38;91.84
53932;BME280;39844;52.496;13.482;2022-07-23T06:56:46;101460.44;;;16.42;92.24
53932;BME280;39844;52.496;13.482;2022-07-23T06:59:12;101454.13;;;16.51;93.27
53932;BME280;39844;52.496;13.482;2022-07-23T07:01:37;101453.16;;;16.60;94.08
53932;BME280;39844;52.496;13.482;2022-07-23T07:04:03;101463.69;;;16.63;91.86
53932;BME280;39844;52.496;13.482;2022-07-23T07:06:28;101460.19;;;16.61;90.74
53932;BME280;39844;52.496;13.482;2022-07-23T07:08:54;101466.38;;;16.61;90.21
53932;BME280;39844;52.496;13.482;2022-07-23T07:11:20;101470.75;;;16.64;91.14
53932;BME280;39844;52.496;13.482;2022-07-23T07:13:46;101470.72;;;16.67;92.20
53932;BME280;39844;52.496;13.482;2022-07-23T07:16:11;101468.06;;;16.67;91.45
53932;BME280;39844;52.496;13.482;2022-07-23T07:18:36;101485.78;;;16.65;90.65
53932;BME280;39844;52.496;13.482;2022-07-23T07:21:02;101499.03;;;16.65;90.58
53932;BME280;39844;52.496;13.482;2022-07-23T07:23:27;101502.47;;;16.68;91.77
53932;BME280;39844;52.496;13.482;2022-07-23T07:25:52;101497.13;;;16.73;91.39
53932;BME280;39844;52.496;13.482;2022-07-23T07:28:18;101497.00;;;16.80;91.76
53932;BME280;39844;52.496;13.482;2022-07-23T07:30:43;101495.16;;;16.84;90.72
53932;BME280;39844;52.496;13.482;2022-07-23T07:33:08;101489.69;;;16.93;92.62
53932;BME280;39844;52.496;13.482;2022-07-23T07:35:34;101498.38;;;17.01;92.29
53932;BME280;39844;52.496;13.482;2022-07-23T07:37:59;101485.16;;;16.99;88.11
53932;BME280;39844;52.496;13.482;2022-07-23T07:40:26;101494.72;;;17.08;90.70
53932;BME280;39844;52.496;13.482;2022-07-23T07:42:52;101490.13;;;17.16;89.92
53932;BME280;39844;52.496;13.482;2022-07-23T07:45:21;101475.06;;;17.18;87.77
53932;BME280;39844;52.496;13.482;2022-07-23T07:47:47;101477.50;;;17.30;89.97
53932;BME280;39844;52.496;13.482;2022-07-23T07:50:12;101478.94;;;17.46;91.52
53932;BME280;39844;52.496;13.482;2022-07-23T07:52:38;101472.69;;;17.49;88.03
53932;BME280;39844;52.496;13.482;2022-07-23T07:55:05;101462.91;;;17.54;88.84
53932;BME280;39844;52.496;13.482;2022-07-23T07:57:30;101467.34;;;17.50;85.89
53932;BME280;39844;52.496;13.482;2022-07-23T07:59:56;101458.53;;;17.48;85.05
53932;BME280;39844;52.496;13.482;2022-07-23T08:02:21;101464.66;;;17.52;85.83
53932;BME280;39844;52.496;13.482;2022-07-23T08:04:47;101446.97;;;17.52;85.60
53932;BME280;39844;52.496;13.482;2022-07-23T08:07:14;101444.97;;;17.63;88.01
53932;BME280;39844;52.496;13.482;2022-07-23T08:09:39;101454.44;;;17.77;88.16
53932;BME280;39844;52.496;13.482;2022-07-23T08:12:04;101446.25;;;17.86;86.69
53932;BME280;39844;52.496;13.482;2022-07-23T08:14:30;101460.53;;;17.82;83.42
53932;BME280;39844;52.496;13.482;2022-07-23T08:16:55;101468.44;;;17.85;85.17
53932;BME280;39844;52.496;13.482;2022-07-23T08:19:20;101458.53;;;17.91;85.39
53932;BME280;39844;52.496;13.482;2022-07-23T08:21:46;101452.06;;;18.03;86.34
53932;BME280;39844;52.496;13.482;2022-07-23T08:24:11;101456.88;;;18.24;87.47
53932;BME280;39844;52.496;13.482;2022-07-23T08:26:36;101449.53;;;18.35;85.23
53932;BME280;39844;52.496;13.482;2022-07-23T08:29:02;101451.19;;;18.39;84.15
53932;BME280;39844;52.496;13.482;2022-07-23T08:31:27;101445.84;;;18.41;82.92
53932;BME280;39844;52.496;13.482;2022-07-23T08:33:52;101448.25;;;18.53;84.15
53932;BME280;39844;52.496;13.482;2022-07-23T08:36:18;101449.00;;;18.56;81.10
53932;BME280;39844;52.496;13.482;2022-07-23T08:38:43;101460.41;;;18.61;81.25
53932;BME280;39844;52.496;13.482;2022-07-23T08:41:09;101460.16;;;18.72;80.27
53932;BME280;39844;52.496;13.482;2022-07-23T08:43:34;101463.63;;;18.75;80.19
53932;BME280;39844;52.496;13.482;2022-07-23T08:46:01;101460.94;;;18.75;78.55
53932;BME280;39844;52.496;13.482;2022-07-23T08:48:33;101473.50;;;18.70;76.96
53932;BME280;39844;52.496;13.482;2022-07-23T08:51:01;101476.03;;;18.75;78.08
53932;BME280;39844;52.496;13.482;2022-07-23T08:53:28;101473.03;;;18.88;79.94
53932;BME280;39844;52.496;13.482;2022-07-23T08:55:56;101464.78;;;18.99;77.69
53932;BME280;39844;52.496;13.482;2022-07-23T08:58:23;101450.13;;;19.15;78.78
53932;BME280;39844;52.496;13.482;2022-07-23T09:00:49;101449.88;;;19.24;76.44
53932;BME280;39844;52.496;13.482;2022-07-23T09:03:20;101457.88;;;19.23;75.81
53932;BME280;39844;52.496;13.482;2022-07-23T09:05:46;101462.38;;;19.21;73.81
53932;BME280;39844;52.496;13.482;2022-07-23T09:08:17;101464.25;;;19.17;74.00
53932;BME280;39844;52.496;13.482;2022-07-23T09:10:54;101460.53;;;19.23;73.80
53932;BME280;39844;52.496;13.482;2022-07-23T09:15:52;101478.94;;;19.32;72.28
53932;BME280;39844;52.496;13.482;2022-07-23T09:18:18;101468.19;;;19.35;72.97
53932;BME280;39844;52.496;13.482;2022-07-23T09:20:44;101460.16;;;19.36;70.52
53932;BME280;39844;52.496;13.482;2022-07-23T09:23:10;101457.59;;;19.33;70.49
53932;BME280;39844;52.496;13.482;2022-07-23T09:25:35;101467.28;;;19.36;71.42
53932;BME280;39844;52.496;13.482;2022-07-23T09:28:00;101467.09;;;19.43;71.18
53932;BME280;39844;52.496;13.482;2022-07-23T09:30:31;101476.34;;;19.61;70.59
53932;BME280;39844;52.496;13.482;2022-07-23T09:33:16;101476.84;;;19.75;70.41
53932;BME280;39844;52.496;13.482;2022-07-23T09:35:53;101481.69;;;19.90;70.08
53932;BME280;39844;52.496;13.482;2022-07-23T09:38:21;101483.09;;;20.02;70.39
53932;BME280;39844;52.496;13.482;2022-07-23T09:40:47;101474.16;;;20.04;68.01
53932;BME280;39844;52.496;13.482;2022-07-23T09:43:31;101484.00;;;20.02;68.09
53932;BME280;39844;52.496;13.482;2022-07-23T09:46:20;101471.09;;;20.16;68.36
53932;BME280;39844;52.496;13.482;2022-07-23T09:48:47;101476.69;;;20.37;68.67
53932;BME280;39844;52.496;13.482;2022-07-23T09:51:12;101476.91;;;20.57;68.53
53932;BME280;39844;52.496;13.482;2022-07-23T09:53:44;101482.41;;;20.78;67.79
53932;BME280;39844;52.496;13.482;2022-07-23T09:56:12;101479.59;;;20.83;65.32
53932;BME280;39844;52.496;13.482;2022-07-23T09:58:39;101483.59;;;20.96;64.22
53932;BME280;39844;52.496;13.482;2022-07-23T10:01:27;101490.34;;;21.32;62.98
53932;BME280;39844;52.496;13.482;2022-07-23T10:03:52;101490.84;;;21.67;61.67
53932;BME280;39844;52.496;13.482;2022-07-23T10:06:18;101494.91;;;22.01;58.57
53932;BME280;39844;52.496;13.482;2022-07-23T10:08:44;101504.25;;;22.56;58.41
53932;BME280;39844;52.496;13.482;2022-07-23T10:11:13;101497.94;;;23.01;56.07
53932;BME280;39844;52.496;13.482;2022-07-23T10:13:40;101489.63;;;23.27;55.00
53932;BME280;39844;52.496;13.482;2022-07-23T10:16:22;101494.44;;;22.99;54.44
53932;BME280;39844;52.496;13.482;2022-07-23T10:18:48;101494.19;;;23.05;55.75
53932;BME280;39844;52.496;13.482;2022-07-23T10:21:25;101485.03;;;23.31;55.86
53932;BME280;39844;52.496;13.482;2022-07-23T10:24:04;101487.97;;;23.45;55.35
53932;BME280;39844;52.496;13.482;2022-07-23T10:34:35;101487.75;;;23.49;53.44
53932;BME280;39844;52.496;13.482;2022-07-23T10:39:34;101495.72;;;24.10;49.36
53932;BME280;39844;52.496;13.482;2022-07-23T10:42:14;101500.66;;;23.99;49.41
53932;BME280;39844;52.496;13.482;2022-07-23T10:44:44;101499.50;;;23.67;49.91
53932;BME280;39844;52.496;13.482;2022-07-23T10:47:11;101505.44;;;23.73;51.37
53932;BME280;39844;52.496;13.482;2022-07-23T10:49:36;101499.13;;;23.93;49.94
53932;BME280;39844;52.496;13.482;2022-07-23T10:52:26;101505.63;;;24.08;50.64
53932;BME280;39844;52.496;13.482;2022-07-23T10:54:56;101502.59;;;24.15;50.08
53932;BME280;39844;52.496;13.482;2022-07-23T10:57:50;101501.19;;;24.61;50.09
53932;BME280;39844;52.496;13.482;2022-07-23T11:00:23;101509.59;;;24.72;48.63
53932;BME280;39844;52.496;13.482;2022-07-23T11:02:51;101504.75;;;24.97;49.88
53932;BME280;39844;52.496;13.482;2022-07-23T11:05:19;101501.53;;;25.08;48.99
53932;BME280;39844;52.496;13.482;2022-07-23T11:10:40;101507.78;;;24.18;49.52
53932;BME280;39844;52.496;13.482;2022-07-23T11:21:40;101488.78;;;25.29;47.71
53932;BME280;39844;52.496;13.482;2022-07-23T11:24:09;101480.88;;;25.60;45.49
53932;BME280;39844;52.496;13.482;2022-07-23T11:34:43;101478.38;;;26.98;42.93
53932;BME280;39844;52.496;13.482;2022-07-23T11:37:27;101470.16;;;26.99;42.98
53932;BME280;39844;52.496;13.482;2022-07-23T11:39:55;101472.97;;;27.41;42.75
53932;BME280;39844;52.496;13.482;2022-07-23T11:42:21;101474.38;;;27.33;42.27
53932;BME280;39844;52.496;13.482;2022-07-23T11:44:48;101474.13;;;26.78;43.44
53932;BME280;39844;52.496;13.482;2022-07-23T11:47:13;101471.28;;;26.95;43.27
53932;BME280;39844;52.496;13.482;2022-07-23T11:49:52;101469.25;;;27.14;43.10
53932;BME280;39844;52.496;13.482;2022-07-23T11:52:18;101464.56;;;27.32;42.77
53932;BME280;39844;52.496;13.482;2022-07-23T11:55:02;101458.53;;;27.56;42.01
53932;BME280;39844;52.496;13.482;2022-07-23T11:57:31;101468.00;;;27.34;41.64
53932;BME280;39844;52.496;13.482;2022-07-23T12:00:02;101459.34;;;27.15;42.35
53932;BME280;39844;52.496;13.482;2022-07-23T12:02:28;101469.00;;;26.89;42.24
53932;BME280;39844;52.496;13.482;2022-07-23T12:04:53;101467.06;;;26.30;42.71
53932;BME280;39844;52.496;13.482;2022-07-23T12:07:32;101456.88;;;26.04;44.93
53932;BME280;39844;52.496;13.482;2022-07-23T12:10:04;101462.25;;;26.04;44.50
53932;BME280;39844;52.496;13.482;2022-07-23T12:15:03;101461.63;;;25.99;44.54
53932;BME280;39844;52.496;13.482;2022-07-23T12:17:32;101473.22;;;25.68;44.10
53932;BME280;39844;52.496;13.482;2022-07-23T12:19:59;101461.03;;;25.28;45.82
53932;BME280;39844;52.496;13.482;2022-07-23T12:22:26;101465.81;;;25.06;47.27
53932;BME280;39844;52.496;13.482;2022-07-23T12:25:04;101459.81;;;25.01;47.28
53932;BME280;39844;52.496;13.482;2022-07-23T12:27:30;101465.81;;;24.89;48.05
53932;BME280;39844;52.496;13.482;2022-07-23T12:29:56;101462.81;;;24.78;46.50
53932;BME280;39844;52.496;13.482;2022-07-23T12:32:28;101460.50;;;25.04;48.23
53932;BME280;39844;52.496;13.482;2022-07-23T12:35:08;101461.84;;;25.63;46.38
53932;BME280;39844;52.496;13.482;2022-07-23T12:37:39;101456.69;;;25.91;44.82
53932;BME280;39844;52.496;13.482;2022-07-23T12:43:07;101457.00;;;25.54;45.63
53932;BME280;39844;52.496;13.482;2022-07-23T12:51:01;101452.41;;;25.39;47.18
53932;BME280;39844;52.496;13.482;2022-07-23T12:53:39;101453.53;;;25.52;46.72
53932;BME280;39844;52.496;13.482;2022-07-23T12:56:11;101460.13;;;25.62;45.11
53932;BME280;39844;52.496;13.482;2022-07-23T12:58:45;101459.09;;;25.64;45.53
53932;BME280;39844;52.496;13.482;2022-07-23T13:01:34;101457.47;;;25.28;45.90
53932;BME280;39844;52.496;13.482;2022-07-23T13:06:27;101460.75;;;25.00;46.71
53932;BME280;39844;52.496;13.482;2022-07-23T13:08:52;101464.72;;;24.74;46.73
53932;BME280;39844;52.496;13.482;2022-07-23T13:11:18;101463.59;;;24.61;46.36
53932;BME280;39844;52.496;13.482;2022-07-23T13:13:43;101462.81;;;24.42;46.32
53932;BME280;39844;52.496;13.482;2022-07-23T13:16:09;101457.91;;;24.33;46.58
53932;BME280;39844;52.496;13.482;2022-07-23T13:18:34;101467.81;;;24.31;47.14
53932;BME280;39844;52.496;13.482;2022-07-23T13:21:00;101454.25;;;24.34;47.07
53932;BME280;39844;52.496;13.482;2022-07-23T13:23:26;101456.94;;;24.34;47.54
53932;BME280;39844;52.496;13.482;2022-07-23T13:25:51;101458.56;;;24.55;48.17